createdAt,value
2023-02-17T00:00:44.996Z,39.78
2023-02-17T00:02:47.037Z,37.83
2023-02-17T00:04:49.162Z,37.45
2023-02-17T00:06:51.233Z,38.45
2023-02-17T00:08:53.311Z,39.22
2023-02-17T00:10:57.852Z,39.75
2023-02-17T00:12:59.870Z,37.80
2023-02-17T00:15:01.888Z,39.95
2023-02-17T00:17:04.004Z,37.78
2023-02-17T00:19:25.006Z,36.38
2023-02-17T00:21:30.711Z,37.17
2023-02-17T00:23:32.822Z,37.10
2023-02-17T00:25:34.972Z,35.97
2023-02-17T00:27:36.986Z,33.53
2023-02-17T00:29:39.120Z,32.90
2023-02-17T00:31:41.389Z,34.78
2023-02-17T00:33:43.571Z,36.65
2023-02-17T00:35:45.686Z,36.80
2023-02-17T00:37:47.755Z,35.22
2023-02-17T00:39:49.820Z,34.88
2023-02-17T00:41:51.910Z,34.53
2023-02-17T00:43:53.925Z,34.00
2023-02-17T00:45:56.132Z,35.67
2023-02-17T00:47:58.279Z,33.88
2023-02-17T00:50:00.313Z,35.22
2023-02-17T00:52:02.377Z,35.10
2023-02-17T00:54:04.635Z,34.25
2023-02-17T00:56:07.318Z,35.00
2023-02-17T00:58:09.543Z,34.92
2023-02-17T01:00:12.406Z,34.42
2023-02-17T01:04:16.520Z,33.90
2023-02-17T01:06:34.012Z,34.13
2023-02-17T01:08:36.176Z,34.08
2023-02-17T01:10:39.582Z,33.17
2023-02-17T01:12:41.615Z,35.05
2023-02-17T01:14:43.721Z,34.90
2023-02-17T01:16:48.334Z,35.33
2023-02-17T01:18:50.423Z,33.22
2023-02-17T01:20:52.785Z,35.38
2023-02-17T01:22:54.806Z,33.67
2023-02-17T01:24:56.916Z,33.00
2023-02-17T01:26:59.065Z,33.65
2023-02-17T01:29:01.222Z,33.60
2023-02-17T01:31:11.242Z,34.10
2023-02-17T01:33:13.551Z,32.75
2023-02-17T01:35:15.651Z,32.50
2023-02-17T01:37:17.756Z,33.67
2023-02-17T01:39:19.835Z,33.13
2023-02-17T01:41:26.690Z,31.90
2023-02-17T01:43:28.798Z,31.80
2023-02-17T01:45:54.423Z,33.42
2023-02-17T01:48:16.618Z,33.28
2023-02-17T01:50:18.945Z,32.33
2023-02-17T01:52:23.981Z,33.15
2023-02-17T01:54:30.761Z,31.42
2023-02-17T01:56:33.994Z,31.60
2023-02-17T01:58:36.150Z,32.50
2023-02-17T02:00:38.234Z,31.00
2023-02-17T02:02:42.537Z,29.55
2023-02-17T02:04:46.951Z,31.83
2023-02-17T02:06:49.011Z,31.10
2023-02-17T02:09:02.032Z,31.48
2023-02-17T02:13:06.926Z,32.67
2023-02-17T02:15:23.211Z,31.95
2023-02-17T02:17:36.801Z,30.95
2023-02-17T02:19:46.376Z,31.42
2023-02-17T02:22:25.598Z,32.45
2023-02-17T02:25:04.407Z,31.10
2023-02-17T02:27:31.362Z,31.15
2023-02-17T02:30:10.349Z,30.30
2023-02-17T02:32:43.367Z,30.67
2023-02-17T02:34:51.858Z,30.35
2023-02-17T02:36:56.929Z,31.33
2023-02-17T02:39:06.485Z,29.90
2023-02-17T02:41:45.218Z,32.13
2023-02-17T02:43:48.642Z,30.88
2023-02-17T02:45:50.699Z,32.05
2023-02-17T02:47:54.743Z,29.88
2023-02-17T02:49:56.847Z,31.52
2023-02-17T02:52:31.766Z,31.20
2023-02-17T02:54:57.854Z,31.50
2023-02-17T02:57:44.881Z,30.70
2023-02-17T03:00:14.514Z,29.73
2023-02-17T03:02:44.164Z,29.83
2023-02-17T03:05:39.603Z,28.80
2023-02-17T03:07:56.616Z,29.98
2023-02-17T03:09:59.392Z,30.05
2023-02-17T03:12:01.400Z,30.25
2023-02-17T03:14:05.847Z,30.95
2023-02-17T03:16:08.480Z,28.42
2023-02-17T03:20:14.022Z,31.65
2023-02-17T03:22:21.995Z,30.63
2023-02-17T03:24:24.184Z,29.90
2023-02-17T03:26:26.259Z,29.83
2023-02-17T03:28:28.442Z,31.08
2023-02-17T03:30:30.496Z,31.77
2023-02-17T03:32:32.734Z,31.83
2023-02-17T03:34:34.772Z,31.65
2023-02-17T03:36:36.862Z,29.85
2023-02-17T03:38:38.940Z,32.83
2023-02-17T03:40:40.947Z,30.98
2023-02-17T03:42:43.023Z,31.77
2023-02-17T03:44:45.142Z,32.22
2023-02-17T03:46:47.234Z,31.27
2023-02-17T03:48:49.295Z,30.48
2023-02-17T03:50:51.402Z,30.15
2023-02-17T03:52:53.441Z,31.02
2023-02-17T03:54:55.458Z,30.90
2023-02-17T03:56:59.119Z,31.17
2023-02-17T03:59:01.185Z,27.48
2023-02-17T04:01:03.347Z,28.33
2023-02-17T04:03:05.433Z,30.08
2023-02-17T04:05:07.996Z,28.55
2023-02-17T04:07:10.024Z,29.60
2023-02-17T04:09:12.178Z,29.80
2023-02-17T04:11:14.249Z,29.30
2023-02-17T04:13:16.295Z,28.48
2023-02-17T04:15:18.480Z,27.65
2023-02-17T04:17:20.512Z,30.45
2023-02-17T04:19:22.544Z,29.98
2023-02-17T04:21:24.609Z,27.75
2023-02-17T04:23:26.800Z,28.88
2023-02-17T04:25:28.831Z,30.33
2023-02-17T04:27:30.876Z,30.42
2023-02-17T04:29:33.344Z,29.48
2023-02-17T04:31:35.463Z,28.98
2023-02-17T04:33:38.053Z,30.42
2023-02-17T04:35:40.355Z,29.42
2023-02-17T04:37:42.384Z,27.83
2023-02-17T04:39:44.534Z,28.90
2023-02-17T04:41:46.565Z,29.13
2023-02-17T04:43:48.648Z,29.25
2023-02-17T04:45:51.096Z,27.00
2023-02-17T04:47:53.169Z,28.88
2023-02-17T04:49:55.216Z,27.17
2023-02-17T04:51:57.250Z,27.90
2023-02-17T04:53:59.325Z,27.25
2023-02-17T04:56:01.417Z,28.10
2023-02-17T04:58:04.289Z,27.75
2023-02-17T05:00:07.518Z,27.90
2023-02-17T05:02:09.585Z,28.90
2023-02-17T05:04:11.682Z,25.92
2023-02-17T05:06:13.754Z,26.58
2023-02-17T05:08:16.037Z,26.15
2023-02-17T05:10:18.938Z,27.33
2023-02-17T05:12:21.099Z,26.48
2023-02-17T05:14:23.183Z,28.15
2023-02-17T05:16:25.265Z,26.27
2023-02-17T05:18:27.362Z,28.20
2023-02-17T05:20:29.628Z,26.95
2023-02-17T05:22:31.807Z,26.80
2023-02-17T05:24:33.949Z,26.92
2023-02-17T05:26:35.980Z,27.20
2023-02-17T05:28:38.181Z,26.17
2023-02-17T05:30:40.223Z,26.95
2023-02-17T05:32:42.276Z,25.60
2023-02-17T05:34:44.489Z,27.17
2023-02-17T05:36:46.516Z,25.90
2023-02-17T05:38:50.005Z,26.00
2023-02-17T05:40:52.081Z,27.48
2023-02-17T05:42:54.192Z,26.23
2023-02-17T05:44:56.499Z,25.30
2023-02-17T05:46:58.543Z,25.80
2023-02-17T05:49:00.562Z,25.55
2023-02-17T05:51:03.950Z,27.17
2023-02-17T05:53:06.078Z,26.83
2023-02-17T05:55:08.398Z,25.63
2023-02-17T05:57:10.487Z,26.73
2023-02-17T05:59:12.566Z,27.30
2023-02-17T06:01:14.661Z,24.30
2023-02-17T06:03:16.859Z,26.55
2023-02-17T06:05:19.034Z,25.90
2023-02-17T06:07:21.117Z,27.80
2023-02-17T06:09:23.207Z,27.13
2023-02-17T06:11:25.410Z,25.90
2023-02-17T06:13:27.430Z,25.73
2023-02-17T06:15:30.539Z,27.10
2023-02-17T06:17:32.651Z,24.98
2023-02-17T06:19:34.726Z,26.08
2023-02-17T06:21:36.940Z,26.05
2023-02-17T06:23:39.112Z,26.60
2023-02-17T06:25:41.146Z,25.45
2023-02-17T06:27:44.185Z,26.05
2023-02-17T06:29:46.298Z,25.17
2023-02-17T06:31:48.403Z,26.80
2023-02-17T06:33:50.453Z,28.05
2023-02-17T06:35:52.621Z,27.30
2023-02-17T06:37:54.681Z,25.77
2023-02-17T06:39:56.749Z,25.67
2023-02-17T06:41:58.909Z,27.25
2023-02-17T06:44:00.943Z,26.50
2023-02-17T06:46:03.070Z,24.30
2023-02-17T06:48:05.425Z,27.30
2023-02-17T06:50:08.513Z,26.88
2023-02-17T06:52:10.564Z,28.23
2023-02-17T06:54:12.696Z,27.00
2023-02-17T06:56:14.789Z,27.67
2023-02-17T06:58:16.832Z,27.73
2023-02-17T07:00:19.794Z,28.23
2023-02-17T07:02:22.077Z,27.02
2023-02-17T07:04:24.168Z,27.33
2023-02-17T07:06:26.709Z,28.40
2023-02-17T07:10:27.216Z,26.42
2023-02-17T07:12:29.557Z,27.67
2023-02-17T07:14:33.073Z,27.48
2023-02-17T07:16:35.221Z,29.05
2023-02-17T07:18:40.298Z,30.35
2023-02-17T07:20:42.448Z,27.60
2023-02-17T07:22:44.543Z,29.95
2023-02-17T07:24:46.682Z,27.83
2023-02-17T07:26:49.046Z,28.92
2023-02-17T07:28:51.114Z,29.25
2023-02-17T07:30:53.304Z,28.98
2023-02-17T07:32:55.361Z,29.73
2023-02-17T07:34:57.398Z,29.23
2023-02-17T07:36:59.524Z,29.85
2023-02-17T07:39:01.563Z,29.63
2023-02-17T07:41:11.336Z,30.10
2023-02-17T07:43:13.469Z,30.42
2023-02-17T07:45:15.649Z,29.40
2023-02-17T07:47:17.761Z,29.17
2023-02-17T07:49:19.983Z,28.95
2023-02-17T07:51:22.416Z,31.50
2023-02-17T07:53:24.450Z,30.58
2023-02-17T07:55:26.675Z,32.97
2023-02-17T07:57:28.765Z,32.38
2023-02-17T07:59:30.875Z,34.15
2023-02-17T08:01:32.959Z,33.45
2023-02-17T08:03:35.075Z,34.38
2023-02-17T08:05:40.933Z,34.38
2023-02-17T08:07:43.008Z,34.53
2023-02-17T08:10:03.589Z,33.53
2023-02-17T08:12:24.757Z,34.08
2023-02-17T08:14:29.437Z,34.70
2023-02-17T08:16:31.521Z,35.05
2023-02-17T08:18:36.519Z,33.55
2023-02-17T08:20:38.950Z,34.75
2023-02-17T08:22:40.987Z,36.55
2023-02-17T08:24:43.117Z,34.97
2023-02-17T08:26:45.411Z,33.22
2023-02-17T08:28:49.209Z,33.63
2023-02-17T08:30:51.380Z,35.40
2023-02-17T08:32:53.648Z,34.20
2023-02-17T08:34:56.871Z,35.33
2023-02-17T08:36:59.046Z,34.97
2023-02-17T08:39:01.617Z,34.38
2023-02-17T08:41:12.856Z,35.63
2023-02-17T08:43:15.639Z,36.55
2023-02-17T08:45:18.193Z,34.42
2023-02-17T08:47:20.457Z,36.25
2023-02-17T08:49:25.566Z,37.90
2023-02-17T08:51:27.934Z,35.15
2023-02-17T08:53:30.046Z,33.45
2023-02-17T08:55:47.381Z,34.53
2023-02-17T08:57:51.132Z,36.95
2023-02-17T08:59:54.529Z,35.85
2023-02-17T09:01:56.955Z,35.70
2023-02-17T09:04:00.114Z,33.08
2023-02-17T09:06:02.236Z,35.78
2023-02-17T09:08:04.696Z,37.22
2023-02-17T09:10:08.200Z,35.42
2023-02-17T09:12:10.387Z,34.83
2023-02-17T09:14:12.538Z,34.92
2023-02-17T09:16:14.819Z,34.58
2023-02-17T09:18:16.963Z,36.22
2023-02-17T09:20:25.093Z,35.33
2023-02-17T09:22:31.873Z,36.33
2023-02-17T09:24:37.011Z,34.25
2023-02-17T09:26:39.158Z,33.83
2023-02-17T09:28:41.445Z,36.50
2023-02-17T09:30:43.628Z,35.40
2023-02-17T09:32:45.767Z,36.15
2023-02-17T09:34:53.917Z,36.25
2023-02-17T09:36:55.925Z,36.10
2023-02-17T09:38:58.181Z,37.00
2023-02-17T09:41:41.844Z,36.17
2023-02-17T09:43:44.142Z,37.70
2023-02-17T09:45:51.619Z,37.45
2023-02-17T09:48:00.297Z,33.60
2023-02-17T09:50:09.920Z,36.70
2023-02-17T09:52:36.594Z,36.05
2023-02-17T09:54:47.840Z,35.90
2023-02-17T09:56:50.970Z,36.08
2023-02-17T09:59:00.775Z,36.03
2023-02-17T10:01:06.698Z,35.50
2023-02-17T10:03:19.538Z,34.53
2023-02-17T10:05:23.486Z,34.20
2023-02-17T10:07:45.674Z,36.15
2023-02-17T10:09:58.677Z,34.15
2023-02-17T10:14:18.064Z,31.27
2023-02-17T10:16:25.395Z,33.38
2023-02-17T10:18:52.506Z,32.75
2023-02-17T10:21:13.102Z,32.38
2023-02-17T10:23:26.724Z,32.78
2023-02-17T10:25:38.974Z,32.15
2023-02-17T10:27:51.589Z,32.00
2023-02-17T10:30:36.115Z,33.60
2023-02-17T10:32:58.048Z,32.08
2023-02-17T10:35:18.497Z,29.38
2023-02-17T10:37:45.940Z,32.03
2023-02-17T10:39:55.554Z,31.25
2023-02-17T10:41:57.625Z,31.95
2023-02-17T10:44:00.117Z,32.40
2023-02-17T10:46:06.251Z,30.65
2023-02-17T10:48:13.542Z,30.13
2023-02-17T10:50:20.724Z,31.05
2023-02-17T10:52:28.110Z,30.80
2023-02-17T10:54:38.820Z,29.17
2023-02-17T10:56:44.837Z,30.90
2023-02-17T10:58:55.881Z,30.27
2023-02-17T11:00:58.157Z,30.05
2023-02-17T11:03:00.465Z,33.30
2023-02-17T11:05:02.699Z,37.88
2023-02-17T11:07:05.927Z,31.00
2023-02-17T11:09:18.949Z,30.30
2023-02-17T11:13:39.185Z,28.10
2023-02-17T11:15:44.798Z,29.15
2023-02-17T11:17:47.121Z,29.38
2023-02-17T11:20:04.092Z,26.10
2023-02-17T11:22:27.315Z,29.65
2023-02-17T11:24:31.611Z,27.15
2023-02-17T11:26:35.378Z,28.77
2023-02-17T11:28:37.565Z,26.95
2023-02-17T11:30:41.188Z,25.23
2023-02-17T11:32:43.268Z,26.85
2023-02-17T11:34:45.593Z,24.42
2023-02-17T11:36:47.668Z,24.77
2023-02-17T11:38:49.725Z,24.60
2023-02-17T11:41:00.764Z,23.65
2023-02-17T11:43:03.880Z,25.10
2023-02-17T11:45:19.213Z,25.13
2023-02-17T11:47:45.445Z,22.85
2023-02-17T11:49:47.469Z,23.55
2023-02-17T11:52:24.160Z,20.17
2023-02-17T11:54:53.332Z,22.98
2023-02-17T11:57:14.292Z,22.70
2023-02-17T11:59:48.858Z,22.17
2023-02-17T12:02:45.193Z,22.77
2023-02-17T12:05:09.888Z,22.27
2023-02-17T12:08:12.594Z,21.77
2023-02-17T12:10:31.521Z,21.30
2023-02-17T12:12:49.313Z,21.27
2023-02-17T12:15:23.316Z,22.60
2023-02-17T12:18:33.593Z,20.45
2023-02-17T12:20:59.331Z,20.77
2023-02-17T12:23:25.271Z,19.40
2023-02-17T12:25:41.844Z,19.63
2023-02-17T12:27:43.787Z,20.50
2023-02-17T12:30:40.979Z,21.13
2023-02-17T12:33:05.881Z,19.60
2023-02-17T12:35:33.490Z,20.08
2023-02-17T12:37:48.679Z,20.15
2023-02-17T12:39:56.988Z,18.98
2023-02-17T12:42:07.493Z,18.63
2023-02-17T12:44:34.389Z,19.50
2023-02-17T12:46:46.298Z,19.23
2023-02-17T12:48:57.783Z,18.15
2023-02-17T12:51:27.689Z,18.20
2023-02-17T12:53:51.496Z,18.10
2023-02-17T12:55:58.655Z,17.35
2023-02-17T12:58:04.249Z,19.70
2023-02-17T13:00:22.981Z,17.50
2023-02-17T13:02:26.164Z,19.77
2023-02-17T13:04:28.845Z,18.23
2023-02-17T13:06:38.209Z,18.38
2023-02-17T13:08:56.490Z,17.70
2023-02-17T13:11:34.626Z,17.30
2023-02-17T13:13:36.733Z,16.98
2023-02-17T13:15:47.904Z,18.27
2023-02-17T13:18:01.293Z,18.25
2023-02-17T13:20:12.485Z,19.75
2023-02-17T13:22:22.834Z,18.30
2023-02-17T13:24:39.244Z,17.40
2023-02-17T13:26:42.747Z,17.00
2023-02-17T13:28:45.004Z,20.40
2023-02-17T13:30:48.861Z,17.58
2023-02-17T13:33:22.433Z,22.05
2023-02-17T13:35:24.848Z,21.95
2023-02-17T13:37:32.810Z,25.08
2023-02-17T13:39:35.957Z,18.85
2023-02-17T13:41:48.400Z,19.55
2023-02-17T13:43:50.537Z,18.23
2023-02-17T13:46:03.963Z,17.73
2023-02-17T13:48:36.133Z,19.85
2023-02-17T13:50:47.263Z,20.15
2023-02-17T13:52:49.344Z,18.02
2023-02-17T13:55:06.210Z,20.77
2023-02-17T13:57:35.991Z,17.15
2023-02-17T13:59:38.242Z,17.15
2023-02-17T14:01:42.010Z,17.83
2023-02-17T14:03:51.028Z,16.45
2023-02-17T14:05:58.157Z,17.70
2023-02-17T14:08:11.985Z,15.80
2023-02-17T14:10:23.145Z,16.27
2023-02-17T14:12:26.103Z,16.38
2023-02-17T14:14:38.080Z,16.67
2023-02-17T14:16:41.680Z,15.75
2023-02-17T14:18:43.852Z,15.85
2023-02-17T14:20:45.886Z,15.90
2023-02-17T14:22:59.112Z,16.20
2023-02-17T14:25:13.826Z,15.85
2023-02-17T14:27:15.887Z,13.65
2023-02-17T14:29:18.002Z,15.70
2023-02-17T14:31:20.461Z,15.15
2023-02-17T14:33:24.322Z,16.02
2023-02-17T14:35:26.444Z,15.90
2023-02-17T14:37:31.058Z,15.98
2023-02-17T14:39:34.436Z,15.00
2023-02-17T14:41:36.549Z,14.57
2023-02-17T14:43:38.745Z,13.73
2023-02-17T14:45:40.843Z,14.20
2023-02-17T14:47:43.370Z,14.32
2023-02-17T14:49:45.493Z,14.30
2023-02-17T14:51:50.140Z,12.60
2023-02-17T14:53:52.564Z,11.88
2023-02-17T14:56:20.114Z,13.20
2023-02-17T14:58:23.521Z,13.88
2023-02-17T15:00:27.781Z,12.40
2023-02-17T15:02:30.847Z,12.13
2023-02-17T15:04:32.933Z,11.45
2023-02-17T15:06:46.886Z,12.10
2023-02-17T15:08:51.986Z,11.70
2023-02-17T15:10:54.060Z,11.18
2023-02-17T15:12:56.813Z,10.77
2023-02-17T15:17:00.885Z,11.57
2023-02-17T15:19:02.995Z,11.45
2023-02-17T15:21:34.524Z,10.30
2023-02-17T15:23:38.005Z,10.18
2023-02-17T15:25:40.173Z,10.65
2023-02-17T15:27:42.342Z,9.27
2023-02-17T15:29:44.415Z,10.43
2023-02-17T15:31:47.068Z,9.82
2023-02-17T15:35:59.122Z,8.93
2023-02-17T15:38:01.184Z,10.73
2023-02-17T15:40:03.323Z,9.10
2023-02-17T15:43:04.415Z,10.07
2023-02-17T15:45:14.975Z,9.60
2023-02-17T15:47:19.320Z,9.65
2023-02-17T15:49:21.756Z,9.10
2023-02-17T15:51:24.881Z,10.13
2023-02-17T15:53:32.399Z,9.27
2023-02-17T15:55:34.539Z,9.85
2023-02-17T15:57:38.167Z,9.35
2023-02-17T15:59:40.352Z,9.52
2023-02-17T16:01:42.676Z,10.35
2023-02-17T16:03:44.763Z,9.95
2023-02-17T16:05:47.966Z,9.45
2023-02-17T16:07:50.041Z,10.10
2023-02-17T16:09:52.171Z,9.90
2023-02-17T16:11:54.440Z,9.77
2023-02-17T16:13:56.596Z,9.98
2023-02-17T16:15:59.177Z,10.32
2023-02-17T16:20:03.625Z,10.52
2023-02-17T16:22:05.777Z,10.95
2023-02-17T16:24:07.905Z,11.23
2023-02-17T16:26:35.288Z,11.30
2023-02-17T16:28:37.407Z,11.00
2023-02-17T16:30:39.509Z,11.63
2023-02-17T16:32:41.667Z,11.68
2023-02-17T16:34:43.942Z,11.32
2023-02-17T16:36:46.009Z,11.80
2023-02-17T16:38:51.048Z,11.27
2023-02-17T16:40:53.441Z,12.10
2023-02-17T16:42:55.705Z,12.82
2023-02-17T16:44:57.910Z,12.95
2023-02-17T16:47:01.720Z,13.55
2023-02-17T16:49:08.521Z,12.07
2023-02-17T16:51:10.636Z,13.98
2023-02-17T16:53:13.444Z,13.40
2023-02-17T16:57:21.499Z,12.75
2023-02-17T16:59:25.116Z,12.85
2023-02-17T17:01:27.181Z,13.95
2023-02-17T17:03:29.256Z,13.18
2023-02-17T17:05:31.732Z,12.68
2023-02-17T17:07:33.845Z,12.52
2023-02-17T17:09:36.044Z,13.50
2023-02-17T17:11:38.180Z,12.98
2023-02-17T17:13:40.310Z,13.70
2023-02-17T17:15:44.662Z,13.82
2023-02-17T17:17:54.683Z,12.82
2023-02-17T17:19:56.743Z,13.98
2023-02-17T17:21:58.849Z,13.23
2023-02-17T17:24:01.000Z,13.95
2023-02-17T17:26:04.471Z,12.73
2023-02-17T17:28:06.898Z,13.93
2023-02-17T17:30:16.908Z,13.40
2023-02-17T17:32:19.116Z,13.05
2023-02-17T17:34:21.363Z,13.35
2023-02-17T17:36:28.442Z,12.43
2023-02-17T17:38:30.519Z,12.25
2023-02-17T17:40:48.546Z,11.77
2023-02-17T17:42:51.211Z,13.32
2023-02-17T17:44:53.512Z,12.57
2023-02-17T17:46:55.568Z,11.90
2023-02-17T17:48:59.067Z,11.35
2023-02-17T17:51:01.100Z,11.55
2023-02-17T17:53:03.194Z,11.15
2023-02-17T17:55:05.876Z,13.07
2023-02-17T17:57:08.434Z,11.98
2023-02-17T17:59:11.278Z,10.65
2023-02-17T18:01:13.668Z,10.82
2023-02-17T18:03:15.880Z,10.00
2023-02-17T18:05:18.102Z,11.38
2023-02-17T18:07:21.848Z,11.77
2023-02-17T18:09:32.101Z,10.45
2023-02-17T18:11:35.061Z,10.35
2023-02-17T18:13:37.737Z,10.07
2023-02-17T18:15:41.302Z,10.57
2023-02-17T18:17:43.422Z,9.75
2023-02-17T18:20:10.442Z,9.57
2023-02-17T18:22:19.937Z,9.60
2023-02-17T18:24:22.032Z,9.60
2023-02-17T18:26:24.170Z,9.05
2023-02-17T18:28:30.009Z,9.10
2023-02-17T18:30:32.200Z,9.13
2023-02-17T18:32:34.460Z,9.60
2023-02-17T18:34:43.076Z,9.45
2023-02-17T18:36:45.283Z,9.52
2023-02-17T18:38:47.742Z,7.95
2023-02-17T18:41:20.572Z,8.05
2023-02-17T18:43:42.952Z,8.75
2023-02-17T18:46:05.886Z,8.47
2023-02-17T18:48:28.526Z,8.40
2023-02-17T18:50:50.955Z,8.77
2023-02-17T18:53:13.415Z,8.05
2023-02-17T18:55:38.939Z,7.45
2023-02-17T18:58:01.400Z,6.25
2023-02-17T19:00:24.937Z,7.25
2023-02-17T19:02:47.503Z,6.30
2023-02-17T19:05:10.453Z,5.97
2023-02-17T19:07:33.308Z,4.82
2023-02-17T19:09:55.868Z,5.03
2023-02-17T19:12:18.592Z,4.68
2023-02-17T19:14:41.791Z,5.15
2023-02-17T19:19:29.290Z,4.57
2023-02-17T19:21:51.780Z,4.43
2023-02-17T19:24:16.435Z,4.45
2023-02-17T19:26:39.106Z,3.95
2023-02-17T19:29:01.500Z,3.67
2023-02-17T19:31:23.984Z,4.43
2023-02-17T19:33:46.703Z,3.53
2023-02-17T19:36:14.993Z,3.83
2023-02-17T19:38:30.201Z,3.70
2023-02-17T19:40:50.885Z,3.50
2023-02-17T19:42:53.003Z,3.60
2023-02-17T19:45:15.518Z,3.47
2023-02-17T19:47:38.040Z,3.42
2023-02-17T19:50:00.622Z,3.67
2023-02-17T19:52:23.055Z,4.03
2023-02-17T19:54:45.470Z,3.53
2023-02-17T19:57:07.422Z,3.95
2023-02-17T19:59:09.510Z,3.30
2023-02-17T20:01:14.810Z,3.92
2023-02-17T20:03:37.352Z,3.72
2023-02-17T20:06:11.131Z,3.25
2023-02-17T20:08:33.631Z,3.08
2023-02-17T20:10:56.028Z,3.38
2023-02-17T20:13:18.362Z,3.37
2023-02-17T20:15:40.758Z,2.57
2023-02-17T20:18:03.256Z,2.87
2023-02-17T20:20:25.620Z,3.65
2023-02-17T20:22:48.008Z,2.80
2023-02-17T20:25:10.521Z,3.00
2023-02-17T20:27:16.055Z,3.20
2023-02-17T20:29:18.308Z,3.17
2023-02-17T20:31:20.598Z,3.50
2023-02-17T20:33:43.897Z,4.15
2023-02-17T20:38:29.806Z,2.90
2023-02-17T20:40:52.573Z,3.70
2023-02-17T20:43:15.423Z,3.50
2023-02-17T20:45:30.240Z,4.55
2023-02-17T20:47:32.507Z,3.60
2023-02-17T20:49:34.684Z,3.55
2023-02-17T20:51:57.085Z,3.45
2023-02-17T20:54:19.609Z,3.97
2023-02-17T20:56:43.632Z,3.95
2023-02-17T20:58:53.981Z,3.95
2023-02-17T21:00:56.210Z,3.65
2023-02-17T21:02:58.374Z,3.65
2023-02-17T21:05:22.013Z,3.08
2023-02-17T21:07:44.647Z,3.97
2023-02-17T21:10:08.921Z,3.33
2023-02-17T21:12:13.038Z,3.58
2023-02-17T21:14:15.284Z,3.20
2023-02-17T21:16:21.995Z,3.45
2023-02-17T21:18:46.906Z,2.95
2023-02-17T21:21:09.508Z,3.85
2023-02-17T21:23:32.004Z,3.60
2023-02-17T21:25:54.403Z,3.53
2023-02-17T21:28:17.633Z,4.57
2023-02-17T21:33:02.525Z,3.75
2023-02-17T21:35:24.937Z,4.18
2023-02-17T21:37:45.040Z,4.38
2023-02-17T21:39:47.217Z,3.88
2023-02-17T21:41:51.528Z,4.60
2023-02-17T21:44:13.103Z,4.65
2023-02-17T21:46:15.222Z,4.72
2023-02-17T21:48:17.354Z,4.60
2023-02-17T21:50:39.810Z,4.78
2023-02-17T21:53:02.251Z,4.45
2023-02-17T21:55:24.655Z,4.65
2023-02-17T21:57:47.018Z,3.58
2023-02-17T22:00:10.090Z,5.23
2023-02-17T22:02:32.458Z,4.80
2023-02-17T22:04:56.547Z,3.97
2023-02-17T22:07:18.913Z,4.25
2023-02-17T22:09:41.293Z,3.87
2023-02-17T22:12:03.755Z,3.70
2023-02-17T22:14:26.113Z,3.78
2023-02-17T22:16:34.997Z,4.25
2023-02-17T22:18:55.758Z,4.10
2023-02-17T22:20:57.770Z,4.07
2023-02-17T22:23:20.139Z,3.95
2023-02-17T22:25:32.962Z,3.75
2023-02-17T22:27:35.020Z,4.28
2023-02-17T22:29:39.761Z,3.95
2023-02-17T22:32:02.267Z,4.00
2023-02-17T22:34:26.181Z,4.05
2023-02-17T22:36:48.638Z,4.70
2023-02-17T22:39:11.023Z,3.35
2023-02-17T22:41:33.854Z,3.27
2023-02-17T22:43:56.338Z,4.30
2023-02-17T22:46:20.044Z,4.35
2023-02-17T22:48:43.261Z,3.08
2023-02-17T22:51:14.230Z,3.50
2023-02-17T22:53:36.767Z,3.28
2023-02-17T22:55:59.129Z,3.60
2023-02-17T22:58:21.961Z,3.60
2023-02-17T23:00:44.374Z,3.42
2023-02-17T23:03:06.929Z,4.00
2023-02-17T23:05:30.007Z,3.95
2023-02-17T23:07:52.889Z,3.58
2023-02-17T23:10:15.284Z,4.35
2023-02-17T23:12:37.681Z,4.07
2023-02-17T23:15:00.701Z,3.78
2023-02-17T23:17:23.084Z,3.65
2023-02-17T23:19:45.452Z,3.67
2023-02-17T23:22:15.945Z,3.67
2023-02-17T23:24:38.409Z,3.58
2023-02-17T23:27:01.096Z,4.30
2023-02-17T23:29:23.730Z,3.75
2023-02-17T23:31:46.199Z,3.10
2023-02-17T23:34:08.660Z,3.95
2023-02-17T23:36:31.117Z,3.63
2023-02-17T23:38:53.486Z,4.30
2023-02-17T23:41:15.873Z,3.90
2023-02-17T23:43:38.216Z,3.30
2023-02-17T23:46:00.995Z,3.67
2023-02-17T23:48:23.531Z,3.83
2023-02-17T23:50:45.928Z,3.75
2023-02-17T23:53:08.559Z,2.93
2023-02-17T23:55:31.081Z,3.35
2023-02-17T23:57:53.426Z,3.78
